createdAt,value
2023-03-04T00:01:55.422Z,96.10
2023-03-04T00:06:58.030Z,96.60
2023-03-04T00:12:00.854Z,91.90
2023-03-04T00:17:04.507Z,94.60
2023-03-04T00:22:07.208Z,95.80
2023-03-04T00:27:09.777Z,90.00
2023-03-04T00:32:12.919Z,96.40
2023-03-04T00:37:15.731Z,91.60
2023-03-04T00:42:19.174Z,94.60
2023-03-04T00:47:25.270Z,96.20
2023-03-04T00:52:29.148Z,97.30
2023-03-04T00:57:31.662Z,97.30
2023-03-04T01:02:34.177Z,92.70
2023-03-04T01:07:37.558Z,93.20
2023-03-04T01:12:43.046Z,93.60
2023-03-04T01:17:46.113Z,96.60
2023-03-04T01:22:48.723Z,97.00
2023-03-04T01:27:51.316Z,93.50
2023-03-04T01:32:55.350Z,98.00
2023-03-04T01:37:57.783Z,97.70
2023-03-04T01:43:00.304Z,97.60
2023-03-04T01:48:02.946Z,96.10
2023-03-04T01:53:05.492Z,95.40
2023-03-04T01:58:10.581Z,94.80
2023-03-04T02:03:19.593Z,94.50
2023-03-04T02:08:24.428Z,95.70
2023-03-04T02:13:27.147Z,94.70
2023-03-04T02:18:29.666Z,93.40
2023-03-04T02:23:41.609Z,92.90
2023-03-04T02:28:45.392Z,92.80
2023-03-04T02:33:48.049Z,93.30
2023-03-04T02:38:52.530Z,95.00
2023-03-04T02:43:56.771Z,92.10
2023-03-04T02:48:59.714Z,94.90
2023-03-04T02:54:04.382Z,94.10
2023-03-04T02:59:07.182Z,81.30
2023-03-04T03:04:09.974Z,92.10
2023-03-04T03:09:13.008Z,95.30
2023-03-04T03:14:15.990Z,89.10
2023-03-04T03:19:19.126Z,89.20
2023-03-04T03:24:22.208Z,93.70
2023-03-04T03:29:25.634Z,90.10
2023-03-04T03:34:28.917Z,92.20
2023-03-04T03:39:31.704Z,91.70
2023-03-04T03:44:34.353Z,94.40
2023-03-04T03:49:36.929Z,98.80
2023-03-04T03:54:39.604Z,91.50
2023-03-04T03:59:42.152Z,93.50
2023-03-04T04:04:44.706Z,86.60
2023-03-04T04:09:48.343Z,91.40
2023-03-04T04:14:50.842Z,93.30
2023-03-04T04:19:53.308Z,96.90
2023-03-04T04:24:55.951Z,92.90
2023-03-04T04:29:58.704Z,92.10
2023-03-04T04:35:01.389Z,94.80
2023-03-04T04:40:04.928Z,94.90
2023-03-04T04:45:08.231Z,93.80
2023-03-04T04:50:11.188Z,91.30
2023-03-04T04:55:13.704Z,94.10
2023-03-04T05:00:19.059Z,96.80
2023-03-04T05:05:21.669Z,91.50
2023-03-04T05:10:24.546Z,91.10
2023-03-04T05:15:27.092Z,94.10
2023-03-04T05:20:29.566Z,95.60
2023-03-04T05:25:32.138Z,87.30
2023-03-04T05:30:35.141Z,95.30
2023-03-04T05:35:39.210Z,87.40
2023-03-04T05:40:42.857Z,84.80
2023-03-04T05:45:45.364Z,90.10
2023-03-04T05:50:48.104Z,90.20
2023-03-04T05:55:51.346Z,92.00
2023-03-04T06:00:54.681Z,91.90
2023-03-04T06:05:57.579Z,94.20
2023-03-04T06:11:00.106Z,93.70
2023-03-04T06:16:02.745Z,90.20
2023-03-04T06:21:05.504Z,90.60
2023-03-04T06:26:12.174Z,97.60
2023-03-04T06:31:14.752Z,97.00
2023-03-04T06:36:17.502Z,90.70
2023-03-04T06:41:20.138Z,91.20
2023-03-04T06:46:22.885Z,94.40
2023-03-04T06:51:25.406Z,94.30
2023-03-04T06:56:27.960Z,84.30
2023-03-04T07:01:30.494Z,91.60
2023-03-04T07:06:33.033Z,90.60
2023-03-04T07:11:35.784Z,89.50
2023-03-04T07:16:38.734Z,91.60
2023-03-04T07:21:41.327Z,90.90
2023-03-04T07:26:43.822Z,88.30
2023-03-04T07:31:46.427Z,91.60
2023-03-04T07:36:49.196Z,89.70
2023-03-04T07:41:51.683Z,89.70
2023-03-04T07:46:54.157Z,91.90
2023-03-04T07:51:56.664Z,88.70
2023-03-04T07:56:59.221Z,93.30
2023-03-04T08:02:01.787Z,87.60
2023-03-04T08:07:04.238Z,93.30
2023-03-04T08:12:06.974Z,92.30
2023-03-04T08:17:10.038Z,94.10
2023-03-04T08:22:13.161Z,93.10
2023-03-04T08:27:15.798Z,92.80
2023-03-04T08:32:18.499Z,90.20
2023-03-04T08:37:21.142Z,87.00
2023-03-04T08:42:24.310Z,87.30
2023-03-04T08:47:26.823Z,86.50
2023-03-04T08:52:30.533Z,87.50
2023-03-04T08:57:33.037Z,88.70
2023-03-04T09:02:35.617Z,90.30
2023-03-04T09:07:38.239Z,91.10
2023-03-04T09:12:40.882Z,91.70
2023-03-04T09:17:43.586Z,89.30
2023-03-04T09:22:46.110Z,92.40
2023-03-04T09:27:48.610Z,89.30
2023-03-04T09:32:51.336Z,90.00
2023-03-04T09:37:54.332Z,86.10
2023-03-04T09:43:03.528Z,91.00
2023-03-04T09:48:07.138Z,91.70
2023-03-04T09:53:33.515Z,92.00
2023-03-04T09:58:44.764Z,90.20
2023-03-04T10:03:53.300Z,82.50
2023-03-04T10:09:06.066Z,91.90
2023-03-04T10:14:23.483Z,88.40
2023-03-04T10:19:32.083Z,81.70
2023-03-04T10:24:35.783Z,83.70
2023-03-04T10:29:38.474Z,86.50
2023-03-04T10:34:40.981Z,79.30
2023-03-04T10:39:46.304Z,83.90
2023-03-04T10:44:59.305Z,84.60
2023-03-04T10:50:05.361Z,93.10
2023-03-04T10:55:21.138Z,90.90
2023-03-04T11:00:26.574Z,89.40
2023-03-04T11:05:32.705Z,91.30
2023-03-04T11:10:38.259Z,94.80
2023-03-04T11:16:31.118Z,94.20
2023-03-04T11:21:40.263Z,90.00
2023-03-04T11:26:59.698Z,95.80
2023-03-04T11:32:23.836Z,93.30
2023-03-04T11:37:30.050Z,94.60
2023-03-04T11:42:44.208Z,94.80
2023-03-04T11:48:16.737Z,92.10
2023-03-04T11:53:53.986Z,91.50
2023-03-04T11:59:40.646Z,93.40
2023-03-04T12:05:11.071Z,93.10
2023-03-04T12:10:25.062Z,92.40
2023-03-04T12:15:44.301Z,95.10
2023-03-04T12:21:07.101Z,91.50
2023-03-04T12:26:28.106Z,92.20
2023-03-04T12:31:41.632Z,90.60
2023-03-04T12:36:50.437Z,87.90
2023-03-04T12:42:10.938Z,85.70
2023-03-04T12:47:37.741Z,76.30
2023-03-04T12:53:10.422Z,96.00
2023-03-04T12:58:21.231Z,98.50
2023-03-04T13:03:29.804Z,92.90
2023-03-04T13:08:50.632Z,87.90
2023-03-04T13:19:44.441Z,99.90
2023-03-04T13:24:51.007Z,99.90
2023-03-04T13:29:53.591Z,99.90
2023-03-04T13:34:56.281Z,99.90
2023-03-04T13:40:23.345Z,99.90
2023-03-04T13:45:52.047Z,99.90
2023-03-04T13:50:54.756Z,99.90
2023-03-04T13:56:21.001Z,99.90
2023-03-04T14:01:33.829Z,99.90
2023-03-04T14:06:42.661Z,99.90
2023-03-04T14:11:45.333Z,99.90
2023-03-04T14:16:54.459Z,99.90
2023-03-04T14:21:57.624Z,99.90
2023-03-04T14:27:14.288Z,99.90
2023-03-04T14:32:16.935Z,99.90
2023-03-04T14:37:25.823Z,99.90
2023-03-04T14:42:39.561Z,99.90
2023-03-04T14:47:46.174Z,99.90
2023-03-04T14:52:53.204Z,99.80
2023-03-04T14:58:08.787Z,99.90
2023-03-04T15:03:32.209Z,99.90
2023-03-04T15:08:40.513Z,99.80
2023-03-04T15:13:44.380Z,98.40
2023-03-04T15:19:02.191Z,99.60
2023-03-04T15:24:06.237Z,99.90
2023-03-04T15:29:17.397Z,93.90
2023-03-04T15:34:21.079Z,96.70
2023-03-04T15:39:23.629Z,94.10
2023-03-04T15:44:26.162Z,82.70
2023-03-04T15:49:29.898Z,97.10
2023-03-04T15:54:33.015Z,97.90
2023-03-04T15:59:35.491Z,93.80
2023-03-04T16:04:39.194Z,99.90
2023-03-04T16:09:41.759Z,99.30
2023-03-04T16:14:46.904Z,99.10
2023-03-04T16:19:49.489Z,95.70
2023-03-04T16:24:54.807Z,95.70
2023-03-04T16:29:57.389Z,99.90
2023-03-04T16:34:59.924Z,99.90
2023-03-04T16:40:04.619Z,90.40
2023-03-04T16:55:28.930Z,69.40
2023-03-04T17:00:31.480Z,82.30
2023-03-04T17:05:34.155Z,72.30
2023-03-04T17:10:36.719Z,65.00
2023-03-04T17:15:41.038Z,70.00
2023-03-04T17:20:43.951Z,65.90
2023-03-04T17:25:46.509Z,73.20
2023-03-04T17:30:56.410Z,99.90
2023-03-04T17:35:58.898Z,99.90
2023-03-04T17:41:05.500Z,99.90
2023-03-04T17:46:12.259Z,92.70
2023-03-04T17:51:15.086Z,66.50
2023-03-04T17:56:17.636Z,97.60
2023-03-04T18:01:21.193Z,95.70
2023-03-04T18:06:25.352Z,66.40
2023-03-04T18:11:28.481Z,72.80
2023-03-04T18:16:31.318Z,71.30
2023-03-04T18:21:33.933Z,88.80
2023-03-04T18:26:36.612Z,78.40
2023-03-04T18:31:39.232Z,84.70
2023-03-04T18:41:44.978Z,83.10
2023-03-04T18:46:56.338Z,88.80
2023-03-04T18:57:07.995Z,83.00
2023-03-04T19:02:22.464Z,88.10
2023-03-04T19:07:26.448Z,78.90
2023-03-04T19:12:29.091Z,90.30
2023-03-04T19:17:32.972Z,86.60
2023-03-04T19:22:36.160Z,88.90
2023-03-04T19:27:38.634Z,84.30
2023-03-04T19:32:41.114Z,99.90
2023-03-04T19:37:43.606Z,97.80
2023-03-04T19:42:46.035Z,99.90
2023-03-04T19:47:48.632Z,99.90
2023-03-04T19:57:54.232Z,99.90
2023-03-04T20:02:56.728Z,99.90
2023-03-04T20:08:00.597Z,99.90
2023-03-04T20:13:05.602Z,99.90
2023-03-04T20:18:08.134Z,99.90
2023-03-04T20:23:10.629Z,99.90
2023-03-04T20:28:13.202Z,99.90
2023-03-04T20:33:15.809Z,99.90
2023-03-04T21:30:50.736Z,99.90
2023-03-04T21:35:53.294Z,99.90
2023-03-04T21:40:56.553Z,99.90
2023-03-04T21:45:59.136Z,99.90
2023-03-04T21:51:06.934Z,99.90
2023-03-04T21:56:11.449Z,99.90
2023-03-04T22:01:16.574Z,99.90
2023-03-04T22:06:22.214Z,99.90
2023-03-04T22:11:25.483Z,99.90
2023-03-04T22:16:29.230Z,99.90
2023-03-04T22:21:31.915Z,99.90
2023-03-04T22:26:35.339Z,99.90
2023-03-04T22:31:38.765Z,99.90
2023-03-04T22:36:44.204Z,99.90
2023-03-04T22:46:49.629Z,99.90
2023-03-04T22:51:52.238Z,99.90
2023-03-04T22:56:54.789Z,99.90
2023-03-04T23:01:57.295Z,99.90
2023-03-04T23:07:00.025Z,99.90
2023-03-04T23:12:02.654Z,99.90
2023-03-04T23:17:05.280Z,99.90
2023-03-04T23:22:07.797Z,99.90
2023-03-04T23:27:10.368Z,99.90
2023-03-04T23:32:12.992Z,99.90
2023-03-04T23:37:15.635Z,99.90
2023-03-04T23:42:18.402Z,99.90
2023-03-04T23:47:20.968Z,99.90
2023-03-04T23:52:23.502Z,99.90
2023-03-04T23:57:26.083Z,99.90
